sensor_id;sensor_type;location;lat;lon;timestamp;P1;durP1;ratioP1;P2;durP2;ratioP2
77168;SDS011;66281;45.114;20.730;2023-10-31T00:02:20;5.03;;;3.43;;
77168;SDS011;66281;45.114;20.730;2023-10-31T00:12:22;5.57;;;2.57;;
77168;SDS011;66281;45.114;20.730;2023-10-31T00:22:23;6.07;;;2.72;;
77168;SDS011;66281;45.114;20.730;2023-10-31T00:32:25;4.57;;;2.67;;
77168;SDS011;66281;45.114;20.730;2023-10-31T00:42:26;8.90;;;3.27;;
77168;SDS011;66281;45.114;20.730;2023-10-31T00:52:28;4.35;;;2.47;;
77168;SDS011;66281;45.114;20.730;2023-10-31T01:02:29;6.33;;;3.20;;
77168;SDS011;66281;45.114;20.730;2023-10-31T01:12:30;6.90;;;2.87;;
77168;SDS011;66281;45.114;20.730;2023-10-31T01:22:32;6.50;;;2.90;;
77168;SDS011;66281;45.114;20.730;2023-10-31T01:32:33;5.17;;;3.40;;
77168;SDS011;66281;45.114;20.730;2023-10-31T01:42:34;8.37;;;3.47;;
77168;SDS011;66281;45.114;20.730;2023-10-31T01:52:36;11.80;;;3.15;;
77168;SDS011;66281;45.114;20.730;2023-10-31T02:02:38;3.50;;;2.27;;
77168;SDS011;66281;45.114;20.730;2023-10-31T02:12:42;4.57;;;2.50;;
77168;SDS011;66281;45.114;20.730;2023-10-31T02:22:45;5.30;;;2.63;;
77168;SDS011;66281;45.114;20.730;2023-10-31T02:32:46;5.17;;;2.13;;
77168;SDS011;66281;45.114;20.730;2023-10-31T02:42:47;6.77;;;2.90;;
77168;SDS011;66281;45.114;20.730;2023-10-31T02:52:48;10.18;;;3.25;;
77168;SDS011;66281;45.114;20.730;2023-10-31T03:02:51;5.03;;;3.00;;
77168;SDS011;66281;45.114;20.730;2023-10-31T03:12:52;3.43;;;2.23;;
77168;SDS011;66281;45.114;20.730;2023-10-31T03:22:53;3.55;;;2.15;;
77168;SDS011;66281;45.114;20.730;2023-10-31T03:32:55;3.63;;;2.40;;
77168;SDS011;66281;45.114;20.730;2023-10-31T03:42:56;6.50;;;3.10;;
77168;SDS011;66281;45.114;20.730;2023-10-31T03:52:57;5.25;;;2.40;;
77168;SDS011;66281;45.114;20.730;2023-10-31T04:02:59;3.50;;;1.97;;
77168;SDS011;66281;45.114;20.730;2023-10-31T04:13:00;4.20;;;2.40;;
77168;SDS011;66281;45.114;20.730;2023-10-31T04:23:01;5.63;;;2.20;;
77168;SDS011;66281;45.114;20.730;2023-10-31T04:33:03;3.43;;;2.13;;
77168;SDS011;66281;45.114;20.730;2023-10-31T04:43:04;4.50;;;2.40;;
77168;SDS011;66281;45.114;20.730;2023-10-31T04:53:05;4.57;;;2.17;;
77168;SDS011;66281;45.114;20.730;2023-10-31T05:03:06;4.83;;;2.40;;
77168;SDS011;66281;45.114;20.730;2023-10-31T05:13:08;5.50;;;1.90;;
77168;SDS011;66281;45.114;20.730;2023-10-31T05:23:16;4.13;;;2.60;;
77168;SDS011;66281;45.114;20.730;2023-10-31T05:33:30;5.77;;;2.70;;
77168;SDS011;66281;45.114;20.730;2023-10-31T05:43:49;6.70;;;2.70;;
77168;SDS011;66281;45.114;20.730;2023-10-31T05:53:51;7.47;;;2.40;;
77168;SDS011;66281;45.114;20.730;2023-10-31T06:03:52;3.87;;;1.80;;
77168;SDS011;66281;45.114;20.730;2023-10-31T06:13:54;5.10;;;1.97;;
77168;SDS011;66281;45.114;20.730;2023-10-31T06:23:55;4.85;;;2.22;;
77168;SDS011;66281;45.114;20.730;2023-10-31T06:33:56;10.37;;;3.47;;
77168;SDS011;66281;45.114;20.730;2023-10-31T06:43:58;7.90;;;2.17;;
77168;SDS011;66281;45.114;20.730;2023-10-31T06:53:59;5.97;;;2.35;;
77168;SDS011;66281;45.114;20.730;2023-10-31T07:04:00;5.37;;;1.77;;
77168;SDS011;66281;45.114;20.730;2023-10-31T07:14:02;5.70;;;3.70;;
77168;SDS011;66281;45.114;20.730;2023-10-31T07:24:03;6.45;;;2.72;;
77168;SDS011;66281;45.114;20.730;2023-10-31T07:34:05;2.40;;;1.70;;
77168;SDS011;66281;45.114;20.730;2023-10-31T07:44:06;6.83;;;2.20;;
77168;SDS011;66281;45.114;20.730;2023-10-31T07:54:08;7.65;;;2.90;;
77168;SDS011;66281;45.114;20.730;2023-10-31T08:04:10;7.50;;;3.97;;
77168;SDS011;66281;45.114;20.730;2023-10-31T08:14:11;17.87;;;12.57;;
77168;SDS011;66281;45.114;20.730;2023-10-31T08:24:13;11.15;;;5.97;;
77168;SDS011;66281;45.114;20.730;2023-10-31T08:34:14;8.37;;;3.80;;
77168;SDS011;66281;45.114;20.730;2023-10-31T08:44:15;7.03;;;3.23;;
77168;SDS011;66281;45.114;20.730;2023-10-31T08:54:17;6.63;;;2.83;;
77168;SDS011;66281;45.114;20.730;2023-10-31T09:04:18;7.90;;;4.10;;
77168;SDS011;66281;45.114;20.730;2023-10-31T09:14:20;4.27;;;2.27;;
77168;SDS011;66281;45.114;20.730;2023-10-31T09:24:21;7.90;;;3.17;;
77168;SDS011;66281;45.114;20.730;2023-10-31T09:34:22;4.57;;;3.27;;
77168;SDS011;66281;45.114;20.730;2023-10-31T09:44:23;13.43;;;2.77;;
77168;SDS011;66281;45.114;20.730;2023-10-31T09:54:25;7.10;;;2.20;;
77168;SDS011;66281;45.114;20.730;2023-10-31T10:04:28;3.60;;;2.20;;
77168;SDS011;66281;45.114;20.730;2023-10-31T10:14:30;4.32;;;1.98;;
77168;SDS011;66281;45.114;20.730;2023-10-31T10:24:33;7.23;;;2.63;;
77168;SDS011;66281;45.114;20.730;2023-10-31T10:34:34;5.30;;;1.60;;
77168;SDS011;66281;45.114;20.730;2023-10-31T10:44:36;4.18;;;1.98;;
77168;SDS011;66281;45.114;20.730;2023-10-31T11:05:04;6.43;;;2.30;;
77168;SDS011;66281;45.114;20.730;2023-10-31T11:15:07;4.00;;;2.00;;
77168;SDS011;66281;45.114;20.730;2023-10-31T11:25:11;5.80;;;2.03;;
77168;SDS011;66281;45.114;20.730;2023-10-31T11:35:13;4.80;;;2.50;;
77168;SDS011;66281;45.114;20.730;2023-10-31T11:45:24;5.27;;;2.33;;
77168;SDS011;66281;45.114;20.730;2023-10-31T11:55:29;6.50;;;2.03;;
77168;SDS011;66281;45.114;20.730;2023-10-31T12:05:31;7.57;;;3.75;;
77168;SDS011;66281;45.114;20.730;2023-10-31T12:15:33;5.93;;;2.93;;
77168;SDS011;66281;45.114;20.730;2023-10-31T12:25:45;4.07;;;1.90;;
77168;SDS011;66281;45.114;20.730;2023-10-31T12:35:50;6.03;;;2.28;;
77168;SDS011;66281;45.114;20.730;2023-10-31T12:45:53;5.93;;;2.00;;
77168;SDS011;66281;45.114;20.730;2023-10-31T12:55:54;6.20;;;2.20;;
77168;SDS011;66281;45.114;20.730;2023-10-31T13:05:55;7.95;;;2.35;;
77168;SDS011;66281;45.114;20.730;2023-10-31T13:15:57;3.97;;;2.60;;
77168;SDS011;66281;45.114;20.730;2023-10-31T13:25:58;12.97;;;2.73;;
77168;SDS011;66281;45.114;20.730;2023-10-31T13:36:00;5.63;;;2.37;;
77168;SDS011;66281;45.114;20.730;2023-10-31T13:46:01;6.00;;;2.30;;
77168;SDS011;66281;45.114;20.730;2023-10-31T13:56:03;4.28;;;2.63;;
77168;SDS011;66281;45.114;20.730;2023-10-31T14:06:05;4.33;;;2.43;;
77168;SDS011;66281;45.114;20.730;2023-10-31T14:16:07;7.10;;;2.33;;
77168;SDS011;66281;45.114;20.730;2023-10-31T14:26:09;9.00;;;3.53;;
77168;SDS011;66281;45.114;20.730;2023-10-31T14:36:13;10.30;;;4.00;;
77168;SDS011;66281;45.114;20.730;2023-10-31T14:46:15;11.03;;;6.67;;
77168;SDS011;66281;45.114;20.730;2023-10-31T14:56:16;10.90;;;3.90;;
77168;SDS011;66281;45.114;20.730;2023-10-31T15:06:18;8.33;;;4.67;;
77168;SDS011;66281;45.114;20.730;2023-10-31T15:16:19;7.60;;;4.65;;
77168;SDS011;66281;45.114;20.730;2023-10-31T15:26:22;12.23;;;6.20;;
77168;SDS011;66281;45.114;20.730;2023-10-31T15:36:28;10.97;;;4.77;;
77168;SDS011;66281;45.114;20.730;2023-10-31T15:46:31;12.68;;;6.35;;
77168;SDS011;66281;45.114;20.730;2023-10-31T15:56:36;7.43;;;3.40;;
77168;SDS011;66281;45.114;20.730;2023-10-31T16:06:37;4.97;;;2.57;;
77168;SDS011;66281;45.114;20.730;2023-10-31T16:16:39;8.77;;;4.90;;
77168;SDS011;66281;45.114;20.730;2023-10-31T16:26:42;5.07;;;3.80;;
77168;SDS011;66281;45.114;20.730;2023-10-31T16:36:43;6.07;;;3.17;;
77168;SDS011;66281;45.114;20.730;2023-10-31T16:46:45;14.98;;;6.10;;
77168;SDS011;66281;45.114;20.730;2023-10-31T16:56:46;8.40;;;3.27;;
77168;SDS011;66281;45.114;20.730;2023-10-31T17:06:48;8.33;;;3.20;;
77168;SDS011;66281;45.114;20.730;2023-10-31T17:16:50;12.82;;;6.10;;
77168;SDS011;66281;45.114;20.730;2023-10-31T17:26:52;15.10;;;7.30;;
77168;SDS011;66281;45.114;20.730;2023-10-31T17:36:53;14.53;;;7.10;;
77168;SDS011;66281;45.114;20.730;2023-10-31T17:46:56;18.08;;;11.20;;
77168;SDS011;66281;45.114;20.730;2023-10-31T17:56:58;24.57;;;11.93;;
77168;SDS011;66281;45.114;20.730;2023-10-31T18:07:01;18.73;;;7.53;;
77168;SDS011;66281;45.114;20.730;2023-10-31T18:17:03;12.55;;;6.50;;
77168;SDS011;66281;45.114;20.730;2023-10-31T18:27:05;24.40;;;11.67;;
77168;SDS011;66281;45.114;20.730;2023-10-31T18:37:08;14.80;;;5.43;;
77168;SDS011;66281;45.114;20.730;2023-10-31T18:47:09;10.83;;;4.90;;
77168;SDS011;66281;45.114;20.730;2023-10-31T18:57:11;9.25;;;4.90;;
77168;SDS011;66281;45.114;20.730;2023-10-31T19:07:12;7.43;;;3.30;;
77168;SDS011;66281;45.114;20.730;2023-10-31T19:17:13;7.33;;;2.90;;
77168;SDS011;66281;45.114;20.730;2023-10-31T19:27:15;15.52;;;8.38;;
77168;SDS011;66281;45.114;20.730;2023-10-31T19:37:17;9.87;;;4.97;;
77168;SDS011;66281;45.114;20.730;2023-10-31T19:47:18;5.23;;;2.60;;
77168;SDS011;66281;45.114;20.730;2023-10-31T19:57:20;5.18;;;2.25;;
77168;SDS011;66281;45.114;20.730;2023-10-31T20:07:22;6.90;;;2.17;;
77168;SDS011;66281;45.114;20.730;2023-10-31T20:17:24;4.97;;;2.67;;
77168;SDS011;66281;45.114;20.730;2023-10-31T20:27:28;5.85;;;3.20;;
77168;SDS011;66281;45.114;20.730;2023-10-31T20:37:29;5.53;;;4.00;;
77168;SDS011;66281;45.114;20.730;2023-10-31T20:47:31;9.40;;;5.70;;
77168;SDS011;66281;45.114;20.730;2023-10-31T20:57:32;6.00;;;3.80;;
77168;SDS011;66281;45.114;20.730;2023-10-31T21:07:35;6.93;;;3.60;;
77168;SDS011;66281;45.114;20.730;2023-10-31T21:17:37;4.53;;;3.23;;
77168;SDS011;66281;45.114;20.730;2023-10-31T21:27:39;5.70;;;2.60;;
77168;SDS011;66281;45.114;20.730;2023-10-31T21:37:40;5.60;;;2.87;;
77168;SDS011;66281;45.114;20.730;2023-10-31T21:47:42;9.73;;;4.30;;
77168;SDS011;66281;45.114;20.730;2023-10-31T21:57:43;9.90;;;3.13;;
77168;SDS011;66281;45.114;20.730;2023-10-31T22:07:45;9.47;;;4.43;;
77168;SDS011;66281;45.114;20.730;2023-10-31T22:17:46;5.60;;;3.20;;
77168;SDS011;66281;45.114;20.730;2023-10-31T22:27:47;9.40;;;3.80;;
77168;SDS011;66281;45.114;20.730;2023-10-31T22:37:48;5.40;;;3.10;;
77168;SDS011;66281;45.114;20.730;2023-10-31T22:47:50;7.17;;;3.30;;
77168;SDS011;66281;45.114;20.730;2023-10-31T22:57:52;7.70;;;3.47;;
77168;SDS011;66281;45.114;20.730;2023-10-31T23:07:53;17.88;;;11.00;;
77168;SDS011;66281;45.114;20.730;2023-10-31T23:17:56;15.90;;;10.10;;
77168;SDS011;66281;45.114;20.730;2023-10-31T23:27:58;11.20;;;7.43;;
77168;SDS011;66281;45.114;20.730;2023-10-31T23:37:59;10.50;;;7.35;;
77168;SDS011;66281;45.114;20.730;2023-10-31T23:48:00;11.47;;;6.70;;
77168;SDS011;66281;45.114;20.730;2023-10-31T23:58:01;11.17;;;6.37;;
